createdAt,value
2019-05-15T00:00:55.295Z,86.97
2019-05-15T00:01:55.221Z,86.78
2019-05-15T00:02:55.132Z,86.78
2019-05-15T00:03:55.100Z,86.87
2019-05-15T00:04:54.969Z,87.06
2019-05-15T00:05:54.892Z,86.78
2019-05-15T00:06:54.804Z,87.25
2019-05-15T00:07:54.816Z,87.25
2019-05-15T00:08:54.645Z,87.16
2019-05-15T00:09:54.622Z,86.87
2019-05-15T00:10:54.491Z,87.54
2019-05-15T00:11:54.432Z,88.10
2019-05-15T00:12:54.319Z,88.48
2019-05-15T00:13:54.249Z,88.58
2019-05-15T00:14:54.157Z,88.48
2019-05-15T00:15:54.154Z,88.58
2019-05-15T00:16:53.995Z,88.48
2019-05-15T00:17:53.960Z,88.10
2019-05-15T00:18:53.832Z,88.01
2019-05-15T00:19:53.876Z,88.58
2019-05-15T00:20:53.668Z,88.77
2019-05-15T00:21:53.598Z,88.68
2019-05-15T00:22:53.509Z,88.48
2019-05-15T00:23:53.491Z,88.87
2019-05-15T00:24:53.349Z,89.06
2019-05-15T00:25:53.304Z,89.53
2019-05-15T00:26:53.185Z,89.53
2019-05-15T00:27:53.216Z,89.43
2019-05-15T00:28:53.022Z,89.25
2019-05-15T00:29:53.023Z,90.10
2019-05-15T00:30:52.863Z,89.81
2019-05-15T00:31:52.832Z,89.53
2019-05-15T00:32:52.697Z,89.91
2019-05-15T00:33:52.641Z,89.72
2019-05-15T00:34:52.539Z,89.43
2019-05-15T00:35:52.554Z,89.39
2019-05-15T00:36:52.377Z,89.81
2019-05-15T00:37:52.360Z,89.91
2019-05-15T00:38:52.206Z,90.10
2019-05-15T00:39:52.172Z,89.67
2019-05-15T00:40:52.047Z,90.00
2019-05-15T00:41:54.745Z,89.96
2019-05-15T00:42:51.883Z,90.72
2019-05-15T00:43:51.889Z,90.15
2019-05-15T00:44:51.724Z,90.15
2019-05-15T00:45:51.704Z,90.24
2019-05-15T00:46:51.561Z,90.53
2019-05-15T00:47:51.504Z,90.62
2019-05-15T00:48:51.391Z,90.53
2019-05-15T00:49:51.420Z,90.15
2019-05-15T00:50:51.231Z,90.43
2019-05-15T00:51:51.235Z,90.81
2019-05-15T00:52:51.067Z,90.05
2019-05-15T00:53:50.995Z,90.34
2019-05-15T00:54:50.915Z,89.96
2019-05-15T00:55:50.950Z,89.77
2019-05-15T00:56:50.747Z,89.48
2019-05-15T00:57:50.675Z,89.67
2019-05-15T00:58:50.586Z,90.24
2019-05-15T00:59:50.569Z,91.38
2019-05-15T01:00:50.418Z,91.47
2019-05-15T01:01:50.347Z,91.47
2019-05-15T01:02:50.257Z,90.91
2019-05-15T01:03:50.290Z,91.38
2019-05-15T01:04:50.096Z,91.47
2019-05-15T01:05:50.098Z,91.19
2019-05-15T01:06:52.651Z,90.72
2019-05-15T01:07:49.906Z,91.28
2019-05-15T01:08:49.772Z,91.28
2019-05-15T01:09:49.712Z,91.57
2019-05-15T01:10:49.605Z,91.19
2019-05-15T01:11:49.624Z,91.38
2019-05-15T01:12:49.440Z,91.19
2019-05-15T01:13:49.436Z,91.76
2019-05-15T01:14:49.281Z,91.76
2019-05-15T01:15:49.241Z,91.66
2019-05-15T01:16:49.181Z,91.38
2019-05-15T01:17:49.319Z,91.38
2019-05-15T01:18:49.246Z,91.57
2019-05-15T01:19:48.965Z,92.52
2019-05-15T01:20:49.365Z,92.42
2019-05-15T01:21:48.771Z,92.42
2019-05-15T01:22:48.674Z,91.85
2019-05-15T01:23:48.621Z,91.76
2019-05-15T01:24:48.666Z,91.57
2019-05-15T01:25:48.496Z,92.61
2019-05-15T01:26:49.266Z,93.08
2019-05-15T01:27:49.032Z,92.71
2019-05-15T01:28:49.420Z,92.52
2019-05-15T01:29:49.293Z,91.76
2019-05-15T01:30:48.597Z,92.23
2019-05-15T01:31:48.699Z,92.23
2019-05-15T01:32:48.543Z,92.71
2019-05-15T01:33:48.160Z,92.90
2019-05-15T01:34:49.063Z,92.23
2019-05-15T01:35:48.718Z,92.61
2019-05-15T01:36:48.874Z,92.42
2019-05-15T01:37:48.281Z,91.95
2019-05-15T01:38:48.055Z,91.47
2019-05-15T01:39:48.533Z,91.47
2019-05-15T01:40:48.460Z,91.47
2019-05-15T01:41:49.345Z,91.00
2019-05-15T01:42:47.003Z,91.09
2019-05-15T01:43:48.921Z,91.24
2019-05-15T01:44:48.417Z,91.24
2019-05-15T01:45:48.315Z,91.28
2019-05-15T01:46:48.262Z,91.24
2019-05-15T01:47:47.986Z,90.67
2019-05-15T01:48:46.504Z,91.24
2019-05-15T01:49:46.433Z,90.67
2019-05-15T01:50:46.338Z,90.48
2019-05-15T01:51:47.972Z,90.86
2019-05-15T01:52:47.923Z,91.14
2019-05-15T01:53:48.044Z,91.90
2019-05-15T01:54:46.016Z,91.52
2019-05-15T01:55:48.253Z,91.24
2019-05-15T01:56:45.854Z,91.05
2019-05-15T01:57:45.851Z,90.95
2019-05-15T01:58:45.687Z,91.24
2019-05-15T01:59:56.580Z,91.24
2019-05-15T02:00:45.521Z,91.52
2019-05-15T02:01:45.463Z,91.52
2019-05-15T02:02:45.366Z,91.43
2019-05-15T02:03:45.383Z,91.24
2019-05-15T02:04:45.197Z,91.71
2019-05-15T02:05:45.185Z,92.47
2019-05-15T02:06:45.032Z,91.71
2019-05-15T02:07:44.994Z,91.62
2019-05-15T02:08:44.869Z,91.62
2019-05-15T02:09:44.904Z,91.62
2019-05-15T02:10:44.709Z,91.71
2019-05-15T02:11:44.717Z,92.47
2019-05-15T02:12:44.549Z,92.76
2019-05-15T02:13:44.529Z,92.85
2019-05-15T02:14:44.378Z,92.28
2019-05-15T02:15:44.334Z,92.28
2019-05-15T02:16:44.216Z,92.38
2019-05-15T02:17:44.246Z,92.57
2019-05-15T02:18:44.054Z,93.13
2019-05-15T02:19:44.054Z,93.23
2019-05-15T02:20:43.885Z,92.66
2019-05-15T02:21:43.864Z,92.76
2019-05-15T02:22:43.732Z,92.76
2019-05-15T02:23:43.670Z,92.85
2019-05-15T02:24:43.559Z,93.61
2019-05-15T02:25:43.583Z,93.70
2019-05-15T02:26:43.397Z,93.23
2019-05-15T02:27:43.393Z,93.32
2019-05-15T02:28:43.234Z,93.51
2019-05-15T02:29:43.203Z,92.94
2019-05-15T02:30:43.063Z,92.94
2019-05-15T02:31:43.011Z,93.04
2019-05-15T02:32:42.911Z,93.32
2019-05-15T02:33:42.921Z,93.32
2019-05-15T02:34:42.740Z,92.57
2019-05-15T02:35:42.736Z,92.57
2019-05-15T02:36:42.576Z,92.19
2019-05-15T02:37:42.540Z,92.09
2019-05-15T02:38:42.422Z,92.33
2019-05-15T02:39:42.452Z,92.66
2019-05-15T02:40:42.249Z,93.84
2019-05-15T02:41:42.266Z,93.46
2019-05-15T02:42:42.082Z,93.51
2019-05-15T02:43:42.070Z,93.46
2019-05-15T02:44:41.921Z,92.90
2019-05-15T02:45:42.742Z,92.19
2019-05-15T02:46:41.753Z,92.14
2019-05-15T02:47:41.794Z,92.19
2019-05-15T02:48:41.589Z,92.14
2019-05-15T02:49:41.605Z,92.33
2019-05-15T02:50:41.427Z,91.67
2019-05-15T02:51:41.409Z,92.43
2019-05-15T02:52:45.167Z,91.95
2019-05-15T02:53:41.236Z,91.14
2019-05-15T02:54:41.109Z,89.58
2019-05-15T02:55:41.133Z,90.25
2019-05-15T02:56:40.933Z,90.53
2019-05-15T02:57:40.935Z,91.57
2019-05-15T02:58:40.772Z,91.10
2019-05-15T02:59:40.750Z,91.48
2019-05-15T03:00:46.954Z,91.86
2019-05-15T03:01:40.808Z,92.33
2019-05-15T03:02:41.597Z,92.33
2019-05-15T03:03:40.471Z,92.05
2019-05-15T03:04:40.364Z,92.24
2019-05-15T03:05:41.152Z,92.33
2019-05-15T03:06:40.113Z,92.43
2019-05-15T03:07:40.792Z,92.43
2019-05-15T03:08:40.351Z,92.52
2019-05-15T03:09:40.158Z,93.46
2019-05-15T03:10:40.820Z,92.99
2019-05-15T03:11:40.820Z,93.27
2019-05-15T03:12:40.892Z,92.90
2019-05-15T03:13:39.655Z,92.71
2019-05-15T03:14:40.062Z,92.71
2019-05-15T03:15:40.520Z,93.27
2019-05-15T03:16:39.655Z,93.75
2019-05-15T03:17:40.715Z,92.80
2019-05-15T03:18:39.881Z,93.46
2019-05-15T03:19:39.511Z,94.04
2019-05-15T03:20:39.324Z,94.23
2019-05-15T03:21:39.070Z,94.04
2019-05-15T03:22:39.978Z,94.04
2019-05-15T03:23:40.557Z,94.32
2019-05-15T03:24:39.616Z,94.70
2019-05-15T03:25:40.468Z,94.70
2019-05-15T03:26:39.466Z,94.89
2019-05-15T03:27:39.475Z,94.42
2019-05-15T03:28:39.505Z,93.84
2019-05-15T03:29:40.304Z,93.84
2019-05-15T03:31:06.504Z,94.42
2019-05-15T03:31:57.838Z,93.65
2019-05-15T03:32:50.505Z,93.75
2019-05-15T03:33:44.891Z,92.80
2019-05-15T03:34:46.241Z,92.80
2019-05-15T03:35:42.726Z,92.80
2019-05-15T03:36:44.436Z,92.99
2019-05-15T03:37:39.772Z,93.27
2019-05-15T03:38:39.350Z,93.75
2019-05-15T03:39:39.229Z,93.84
2019-05-15T03:40:39.615Z,93.46
2019-05-15T03:41:39.310Z,93.46
2019-05-15T03:42:39.335Z,93.27
2019-05-15T03:43:39.399Z,93.56
2019-05-15T03:44:39.289Z,93.94
2019-05-15T03:45:40.253Z,93.94
2019-05-15T03:46:39.562Z,93.46
2019-05-15T03:47:39.728Z,94.13
2019-05-15T03:48:39.790Z,93.84
2019-05-15T03:49:39.436Z,93.94
2019-05-15T03:50:39.716Z,93.84
2019-05-15T03:51:40.102Z,94.13
2019-05-15T03:52:39.250Z,94.23
2019-05-15T03:53:39.534Z,94.70
2019-05-15T03:54:39.106Z,94.23
2019-05-15T03:55:36.118Z,93.94
2019-05-15T03:56:39.045Z,94.23
2019-05-15T03:57:39.589Z,94.04
2019-05-15T03:58:35.828Z,94.13
2019-05-15T03:59:35.836Z,94.32
2019-05-15T04:00:35.667Z,95.26
2019-05-15T04:01:39.723Z,95.07
2019-05-15T04:02:35.504Z,94.42
2019-05-15T04:03:38.810Z,94.60
2019-05-15T04:04:35.337Z,93.75
2019-05-15T04:05:38.636Z,94.13
2019-05-15T04:06:35.168Z,94.60
2019-05-15T04:07:35.179Z,94.89
2019-05-15T04:08:35.016Z,94.60
2019-05-15T04:09:34.993Z,94.70
2019-05-15T04:10:34.844Z,95.07
2019-05-15T04:11:34.797Z,95.07
2019-05-15T04:12:34.678Z,94.79
2019-05-15T04:13:34.724Z,94.79
2019-05-15T04:14:34.510Z,95.55
2019-05-15T04:15:34.523Z,96.21
2019-05-15T04:16:34.345Z,96.21
2019-05-15T04:17:34.332Z,96.02
2019-05-15T04:18:34.178Z,96.02
2019-05-15T04:19:34.134Z,96.31
2019-05-15T04:20:34.014Z,96.50
2019-05-15T04:21:34.044Z,96.02
2019-05-15T04:22:33.848Z,95.83
2019-05-15T04:23:33.859Z,96.12
2019-05-15T04:24:33.683Z,96.21
2019-05-15T04:25:33.663Z,95.83
2019-05-15T04:26:33.516Z,96.02
2019-05-15T04:27:33.475Z,95.55
2019-05-15T04:28:33.354Z,95.45
2019-05-15T04:29:33.383Z,95.07
2019-05-15T04:30:33.192Z,95.07
2019-05-15T04:31:50.347Z,94.79
2019-05-15T04:32:33.022Z,94.70
2019-05-15T04:33:33.002Z,94.32
2019-05-15T04:34:32.860Z,94.79
2019-05-15T04:35:32.817Z,93.89
2019-05-15T04:36:32.692Z,94.13
2019-05-15T04:37:32.725Z,93.89
2019-05-15T04:38:32.529Z,93.04
2019-05-15T04:39:32.546Z,92.61
2019-05-15T04:40:32.362Z,92.66
2019-05-15T04:41:32.344Z,92.33
2019-05-15T04:42:32.205Z,93.08
2019-05-15T04:43:39.731Z,93.51
2019-05-15T04:44:32.034Z,93.99
2019-05-15T04:45:35.244Z,93.04
2019-05-15T04:46:31.866Z,93.13
2019-05-15T04:47:31.872Z,93.13
2019-05-15T04:48:31.714Z,92.28
2019-05-15T04:49:31.681Z,92.57
2019-05-15T04:50:31.541Z,92.28
2019-05-15T04:51:31.497Z,92.19
2019-05-15T04:52:31.374Z,91.33
2019-05-15T04:53:33.191Z,90.95
2019-05-15T04:54:31.224Z,90.48
2019-05-15T04:55:31.208Z,90.20
2019-05-15T04:56:31.043Z,89.77
2019-05-15T04:57:34.081Z,89.96
2019-05-15T04:58:30.894Z,90.15
2019-05-15T04:59:30.822Z,89.86
2019-05-15T05:00:30.715Z,89.96
2019-05-15T05:01:30.745Z,89.01
2019-05-15T05:02:32.087Z,88.63
2019-05-15T05:03:34.158Z,87.49
2019-05-15T05:04:30.392Z,87.12
2019-05-15T05:05:30.353Z,87.02
2019-05-15T05:06:30.223Z,86.83
2019-05-15T05:07:30.164Z,86.83
2019-05-15T05:08:30.060Z,86.78
2019-05-15T05:09:30.075Z,87.45
2019-05-15T05:10:29.893Z,87.16
2019-05-15T05:11:29.893Z,87.06
2019-05-15T05:12:29.729Z,86.11
2019-05-15T05:13:29.803Z,86.02
2019-05-15T05:14:29.569Z,86.11
2019-05-15T05:15:29.503Z,85.83
2019-05-15T05:16:29.637Z,84.69
2019-05-15T05:17:29.421Z,83.65
2019-05-15T05:18:29.905Z,83.55
2019-05-15T05:19:29.261Z,83.17
2019-05-15T05:20:29.073Z,82.79
2019-05-15T05:21:28.994Z,82.42
2019-05-15T05:22:29.039Z,81.75
2019-05-15T05:23:28.821Z,81.56
2019-05-15T05:24:28.846Z,81.09
2019-05-15T05:25:28.661Z,81.09
2019-05-15T05:26:29.445Z,80.90
2019-05-15T05:27:28.850Z,80.90
2019-05-15T05:28:29.041Z,81.56
2019-05-15T05:29:28.337Z,81.23
2019-05-15T05:30:29.282Z,80.94
2019-05-15T05:31:29.597Z,81.04
2019-05-15T05:32:34.527Z,81.04
2019-05-15T05:33:28.611Z,80.46
2019-05-15T05:34:28.438Z,80.46
2019-05-15T05:35:27.974Z,81.23
2019-05-15T05:36:28.027Z,81.23
2019-05-15T05:37:28.005Z,81.13
2019-05-15T05:38:28.195Z,80.94
2019-05-15T05:39:29.425Z,80.75
2019-05-15T05:40:29.326Z,81.23
2019-05-15T05:41:28.107Z,80.27
2019-05-15T05:42:29.109Z,79.71
2019-05-15T05:43:27.192Z,79.42
2019-05-15T05:44:29.133Z,79.42
2019-05-15T05:45:28.811Z,79.23
2019-05-15T05:46:28.031Z,78.75
2019-05-15T05:47:28.790Z,78.38
2019-05-15T05:48:29.116Z,78.56
2019-05-15T05:49:28.688Z,78.56
2019-05-15T05:50:28.788Z,78.75
2019-05-15T05:51:28.159Z,78.56
2019-05-15T05:52:28.025Z,78.56
2019-05-15T05:53:28.525Z,78.09
2019-05-15T05:54:28.650Z,77.81
2019-05-15T05:55:28.277Z,76.76
2019-05-15T05:56:28.298Z,76.39
2019-05-15T05:57:27.942Z,76.42
2019-05-15T05:58:25.968Z,77.09
2019-05-15T05:59:28.260Z,76.67
2019-05-15T06:00:28.447Z,76.80
2019-05-15T06:01:28.133Z,76.99
2019-05-15T06:02:27.891Z,77.84
2019-05-15T06:03:27.907Z,77.94
2019-05-15T06:04:27.776Z,78.70
2019-05-15T06:05:28.006Z,78.61
2019-05-15T06:06:25.333Z,78.61
2019-05-15T06:07:27.802Z,78.61
2019-05-15T06:08:25.259Z,78.80
2019-05-15T06:09:25.073Z,78.89
2019-05-15T06:10:25.170Z,78.23
2019-05-15T06:11:24.908Z,78.13
2019-05-15T06:12:24.982Z,77.18
2019-05-15T06:13:24.746Z,76.71
2019-05-15T06:14:24.788Z,76.14
2019-05-15T06:15:24.587Z,75.85
2019-05-15T06:16:24.601Z,76.42
2019-05-15T06:17:24.424Z,76.04
2019-05-15T06:18:24.343Z,75.47
2019-05-15T06:19:24.413Z,74.62
2019-05-15T06:20:24.177Z,74.43
2019-05-15T06:21:24.119Z,74.43
2019-05-15T06:22:24.017Z,74.47
2019-05-15T06:23:25.919Z,74.94
2019-05-15T06:24:23.851Z,74.75
2019-05-15T06:25:23.846Z,74.66
2019-05-15T06:26:23.694Z,73.80
2019-05-15T06:27:23.658Z,73.80
2019-05-15T06:28:23.532Z,73.33
2019-05-15T06:29:23.451Z,72.47
2019-05-15T06:30:27.446Z,72.85
2019-05-15T06:31:23.290Z,73.04
2019-05-15T06:32:23.208Z,73.23
2019-05-15T06:33:23.183Z,72.95
2019-05-15T06:34:23.043Z,72.85
2019-05-15T06:35:22.967Z,72.47
2019-05-15T06:36:22.887Z,72.28
2019-05-15T06:37:22.901Z,72.47
2019-05-15T06:38:22.722Z,72.47
2019-05-15T06:39:22.717Z,72.38
2019-05-15T06:40:22.563Z,72.28
2019-05-15T06:41:22.480Z,73.23
2019-05-15T06:42:22.421Z,73.23
2019-05-15T06:43:22.335Z,72.95
2019-05-15T06:44:22.335Z,73.33
2019-05-15T06:45:22.159Z,73.04
2019-05-15T06:46:22.144Z,72.28
2019-05-15T06:47:22.000Z,72.47
2019-05-15T06:48:21.916Z,72.56
2019-05-15T06:49:21.859Z,72.66
2019-05-15T06:50:21.758Z,72.75
2019-05-15T06:51:21.776Z,72.19
2019-05-15T06:52:21.601Z,72.95
2019-05-15T06:53:21.575Z,72.38
2019-05-15T06:54:21.434Z,72.19
2019-05-15T06:55:21.388Z,71.90
2019-05-15T06:56:21.270Z,72.28
2019-05-15T06:57:21.297Z,72.13
2019-05-15T06:58:21.112Z,72.41
2019-05-15T06:59:21.029Z,72.22
2019-05-15T07:00:20.947Z,72.32
2019-05-15T07:01:20.917Z,72.32
2019-05-15T07:02:20.790Z,72.03
2019-05-15T07:03:25.781Z,72.41
2019-05-15T07:04:20.635Z,72.99
2019-05-15T07:05:20.643Z,72.70
2019-05-15T07:06:20.468Z,72.32
2019-05-15T07:07:20.447Z,71.84
2019-05-15T07:08:20.324Z,71.46
2019-05-15T07:09:20.253Z,71.75
2019-05-15T07:10:20.200Z,70.99
2019-05-15T07:11:20.170Z,70.32
2019-05-15T07:12:19.991Z,70.32
2019-05-15T07:13:19.985Z,70.04
2019-05-15T07:14:19.823Z,70.23
2019-05-15T07:15:19.747Z,69.46
2019-05-15T07:16:19.692Z,69.46
2019-05-15T07:17:19.586Z,69.50
2019-05-15T07:18:20.147Z,69.88
2019-05-15T07:19:19.424Z,69.88
2019-05-15T07:20:19.413Z,69.88
2019-05-15T07:21:20.602Z,70.07
2019-05-15T07:22:19.220Z,69.98
2019-05-15T07:23:19.284Z,69.88
2019-05-15T07:24:19.136Z,69.41
2019-05-15T07:25:19.052Z,68.65
2019-05-15T07:26:18.965Z,68.74
2019-05-15T07:27:18.784Z,68.93
2019-05-15T07:28:18.706Z,69.02
2019-05-15T07:29:18.980Z,68.36
2019-05-15T07:30:18.805Z,68.17
2019-05-15T07:31:18.566Z,67.69
2019-05-15T07:32:19.259Z,67.25
2019-05-15T07:33:28.120Z,66.84
2019-05-15T07:34:18.824Z,66.97
2019-05-15T07:35:19.133Z,67.35
2019-05-15T07:36:19.221Z,66.97
2019-05-15T07:37:18.997Z,66.20
2019-05-15T07:38:18.333Z,66.68
2019-05-15T07:39:18.063Z,66.78
2019-05-15T07:40:19.349Z,66.20
2019-05-15T07:41:18.461Z,66.59
2019-05-15T07:42:18.526Z,66.30
2019-05-15T07:43:18.140Z,67.44
2019-05-15T07:44:18.887Z,67.73
2019-05-15T07:45:28.126Z,67.10
2019-05-15T07:46:18.427Z,67.76
2019-05-15T07:47:19.097Z,67.86
2019-05-15T07:48:18.687Z,67.57
2019-05-15T07:49:18.256Z,66.81
2019-05-15T07:50:19.529Z,66.05
2019-05-15T07:51:17.979Z,67.19
2019-05-15T07:52:19.186Z,66.05
2019-05-15T07:53:19.254Z,65.95
2019-05-15T07:54:18.248Z,65.19
2019-05-15T07:55:18.466Z,65.00
2019-05-15T07:56:18.155Z,65.77
2019-05-15T07:57:19.244Z,66.24
2019-05-15T07:58:20.247Z,65.58
2019-05-15T07:59:18.530Z,65.77
2019-05-15T08:00:18.550Z,65.10
2019-05-15T08:01:18.378Z,64.81
2019-05-15T08:02:15.988Z,65.48
2019-05-15T08:03:18.355Z,65.95
2019-05-15T08:04:26.304Z,65.58
2019-05-15T08:05:18.087Z,66.46
2019-05-15T08:06:17.838Z,66.66
2019-05-15T08:07:15.595Z,66.27
2019-05-15T08:08:18.206Z,65.61
2019-05-15T08:09:17.857Z,63.42
2019-05-15T08:10:18.123Z,62.75
2019-05-15T08:11:20.632Z,63.13
2019-05-15T08:12:15.200Z,64.28
2019-05-15T08:13:15.273Z,64.94
2019-05-15T08:14:15.042Z,65.16
2019-05-15T08:15:15.185Z,64.21
2019-05-15T08:16:14.882Z,64.21
2019-05-15T08:17:18.323Z,63.07
2019-05-15T08:18:14.727Z,62.97
2019-05-15T08:19:14.799Z,63.73
2019-05-15T08:20:14.566Z,63.26
2019-05-15T08:21:14.712Z,63.83
2019-05-15T08:22:15.185Z,62.68
2019-05-15T08:23:14.524Z,61.45
2019-05-15T08:24:14.259Z,60.59
2019-05-15T08:25:28.257Z,61.35
2019-05-15T08:26:14.092Z,62.02
2019-05-15T08:27:14.247Z,62.12
2019-05-15T08:28:13.940Z,60.40
2019-05-15T08:29:13.950Z,59.74
2019-05-15T08:30:13.779Z,59.28
2019-05-15T08:31:13.732Z,60.33
2019-05-15T08:32:13.628Z,60.81
2019-05-15T08:33:13.688Z,60.14
2019-05-15T08:34:16.309Z,60.24
2019-05-15T08:35:13.474Z,60.05
2019-05-15T08:36:13.304Z,60.24
2019-05-15T08:37:13.287Z,59.38
2019-05-15T08:38:14.356Z,59.22
2019-05-15T08:39:13.105Z,60.36
2019-05-15T08:40:12.998Z,60.65
2019-05-15T08:41:15.524Z,59.79
2019-05-15T08:42:12.847Z,59.60
2019-05-15T08:43:12.760Z,59.60
2019-05-15T08:44:12.721Z,59.70
2019-05-15T08:45:12.608Z,60.27
2019-05-15T08:46:12.630Z,60.36
2019-05-15T08:47:12.457Z,59.70
2019-05-15T08:48:12.440Z,59.31
2019-05-15T08:49:12.286Z,59.12
2019-05-15T08:50:12.249Z,59.03
2019-05-15T08:51:12.133Z,58.75
2019-05-15T08:52:12.061Z,59.22
2019-05-15T08:53:11.980Z,59.16
2019-05-15T08:54:11.972Z,59.44
2019-05-15T08:55:11.816Z,59.73
2019-05-15T08:56:14.681Z,59.73
2019-05-15T08:57:11.670Z,60.02
2019-05-15T08:58:14.072Z,59.25
2019-05-15T08:59:11.510Z,58.68
2019-05-15T09:00:11.439Z,58.39
2019-05-15T09:01:11.403Z,59.53
2019-05-15T09:02:11.274Z,59.44
2019-05-15T09:03:11.314Z,58.58
2019-05-15T09:04:26.141Z,59.06
2019-05-15T09:05:11.041Z,59.19
2019-05-15T09:06:11.040Z,58.42
2019-05-15T09:07:10.912Z,57.59
2019-05-15T09:08:10.948Z,56.82
2019-05-15T09:09:10.746Z,56.73
2019-05-15T09:10:10.749Z,56.54
2019-05-15T09:11:10.579Z,57.21
2019-05-15T09:12:10.495Z,57.31
2019-05-15T09:13:10.422Z,57.62
2019-05-15T09:14:10.369Z,56.35
2019-05-15T09:15:10.265Z,55.13
2019-05-15T09:16:10.198Z,55.58
2019-05-15T09:17:10.117Z,53.58
2019-05-15T09:18:15.921Z,53.58
2019-05-15T09:19:09.956Z,54.25
2019-05-15T09:20:09.907Z,55.68
2019-05-15T09:21:09.800Z,54.63
2019-05-15T09:22:09.809Z,53.49
2019-05-15T09:23:09.649Z,53.67
2019-05-15T09:24:09.653Z,54.15
2019-05-15T09:25:09.492Z,54.03
2019-05-15T09:26:09.534Z,54.99
2019-05-15T09:27:10.249Z,54.60
2019-05-15T09:28:09.347Z,53.74
2019-05-15T09:29:09.511Z,53.84
2019-05-15T09:30:09.152Z,54.22
2019-05-15T09:31:09.030Z,54.79
2019-05-15T09:32:12.388Z,56.25
2019-05-15T09:33:08.916Z,56.73
2019-05-15T09:34:09.240Z,59.22
2019-05-15T09:35:08.720Z,60.07
2019-05-15T09:36:09.215Z,58.26
2019-05-15T09:37:08.689Z,58.07
2019-05-15T09:38:08.779Z,56.92
2019-05-15T09:39:08.780Z,56.63
2019-05-15T09:40:08.988Z,56.38
2019-05-15T09:41:09.166Z,56.28
2019-05-15T09:42:08.520Z,53.80
2019-05-15T09:43:10.897Z,53.70
2019-05-15T09:44:08.118Z,53.51
2019-05-15T09:45:08.952Z,54.94
2019-05-15T09:46:10.313Z,53.70
2019-05-15T09:47:09.144Z,53.51
2019-05-15T09:48:10.126Z,53.51
2019-05-15T09:49:08.821Z,51.89
2019-05-15T09:50:08.500Z,52.26
2019-05-15T09:51:09.192Z,51.89
2019-05-15T09:52:08.997Z,51.50
2019-05-15T09:53:09.296Z,52.26
2019-05-15T09:54:08.111Z,53.61
2019-05-15T09:55:08.546Z,53.61
2019-05-15T09:56:08.097Z,53.70
2019-05-15T09:57:10.661Z,53.22
2019-05-15T09:58:08.262Z,53.80
2019-05-15T09:59:08.909Z,54.66
2019-05-15T10:00:09.014Z,53.70
2019-05-15T10:01:08.462Z,53.22
2019-05-15T10:02:09.075Z,53.49
2019-05-15T10:03:09.366Z,53.70
2019-05-15T10:04:08.331Z,53.80
2019-05-15T10:05:10.986Z,53.80
2019-05-15T10:06:08.160Z,53.80
2019-05-15T10:07:08.203Z,53.80
2019-05-15T10:08:08.480Z,53.80
2019-05-15T10:09:08.873Z,53.89
2019-05-15T10:10:08.516Z,52.08
2019-05-15T10:11:08.871Z,52.36
2019-05-15T10:12:05.875Z,52.75
2019-05-15T10:13:05.863Z,52.75
2019-05-15T10:14:05.725Z,52.94
2019-05-15T10:15:10.477Z,53.03
2019-05-15T10:16:08.214Z,52.36
2019-05-15T10:17:05.592Z,51.98
2019-05-15T10:18:05.426Z,52.46
2019-05-15T10:19:05.393Z,51.41
2019-05-15T10:20:05.265Z,50.16
2019-05-15T10:21:05.187Z,50.35
2019-05-15T10:22:05.226Z,51.50
2019-05-15T10:23:05.032Z,52.20
2019-05-15T10:24:05.015Z,52.20
2019-05-15T10:25:04.888Z,52.39
2019-05-15T10:26:04.937Z,51.43
2019-05-15T10:27:04.728Z,50.09
2019-05-15T10:28:04.736Z,50.35
2019-05-15T10:29:04.574Z,50.45
2019-05-15T10:30:04.651Z,50.35
2019-05-15T10:31:04.421Z,50.26
2019-05-15T10:32:04.458Z,51.31
2019-05-15T10:33:04.293Z,50.45
2019-05-15T10:34:04.266Z,49.59
2019-05-15T10:35:04.122Z,50.38
2019-05-15T10:36:04.180Z,50.00
2019-05-15T10:37:03.965Z,51.72
2019-05-15T10:38:03.986Z,51.34
2019-05-15T10:39:03.839Z,51.24
2019-05-15T10:40:03.810Z,51.65
2019-05-15T10:41:09.399Z,50.02
2019-05-15T10:42:03.580Z,49.93
2019-05-15T10:43:03.510Z,49.45
2019-05-15T10:44:03.444Z,49.93
2019-05-15T10:45:03.419Z,49.35
2019-05-15T10:46:03.279Z,48.68
2019-05-15T10:47:03.338Z,47.25
2019-05-15T10:48:03.126Z,49.35
2019-05-15T10:49:03.142Z,49.45
2019-05-15T10:50:02.971Z,49.35
2019-05-15T10:51:07.259Z,49.64
2019-05-15T10:52:02.822Z,49.45
2019-05-15T10:53:02.860Z,49.71
2019-05-15T10:54:02.676Z,47.71
2019-05-15T10:55:02.673Z,48.28
2019-05-15T10:56:02.875Z,49.62
2019-05-15T10:57:05.274Z,50.09
2019-05-15T10:58:02.364Z,50.67
2019-05-15T10:59:02.399Z,52.10
2019-05-15T11:00:02.221Z,52.89
2019-05-15T11:01:03.372Z,52.80
2019-05-15T11:02:02.059Z,51.27
2019-05-15T11:03:02.031Z,49.35
2019-05-15T11:04:01.906Z,49.45
2019-05-15T11:05:01.935Z,50.12
2019-05-15T11:06:01.757Z,49.55
2019-05-15T11:07:01.838Z,49.64
2019-05-15T11:08:01.603Z,49.00
2019-05-15T11:09:01.529Z,48.90
2019-05-15T11:10:01.552Z,46.87
2019-05-15T11:11:01.373Z,49.55
2019-05-15T11:12:01.465Z,49.84
2019-05-15T11:13:01.221Z,48.97
2019-05-15T11:14:01.271Z,48.39
2019-05-15T11:15:01.081Z,47.16
2019-05-15T11:16:01.081Z,48.11
2019-05-15T11:17:00.920Z,49.16
2019-05-15T11:18:00.997Z,48.30
2019-05-15T11:19:00.770Z,49.35
2019-05-15T11:20:00.798Z,51.58
2019-05-15T11:21:00.617Z,51.39
2019-05-15T11:22:00.718Z,49.35
2019-05-15T11:23:00.470Z,48.21
2019-05-15T11:24:00.522Z,48.39
2019-05-15T11:25:00.319Z,46.96
2019-05-15T11:26:00.333Z,48.30
2019-05-15T11:27:00.217Z,48.23
2019-05-15T11:28:00.254Z,47.27
2019-05-15T11:29:00.014Z,46.61
2019-05-15T11:30:00.052Z,47.56
2019-05-15T11:30:59.865Z,48.52
2019-05-15T11:31:59.977Z,48.04
2019-05-15T11:32:59.718Z,48.23
2019-05-15T11:33:59.768Z,47.56
2019-05-15T11:34:59.566Z,46.98
2019-05-15T11:36:05.581Z,48.13
2019-05-15T11:36:59.529Z,48.33
2019-05-15T11:37:59.491Z,46.89
2019-05-15T11:38:59.261Z,47.08
2019-05-15T11:39:59.298Z,46.61
2019-05-15T11:40:59.104Z,46.03
2019-05-15T11:41:59.034Z,46.70
2019-05-15T11:42:58.962Z,46.89
2019-05-15T11:43:58.920Z,46.58
2019-05-15T11:44:58.830Z,46.98
2019-05-15T11:45:59.018Z,47.56
2019-05-15T11:46:58.851Z,47.37
2019-05-15T11:48:01.025Z,46.61
2019-05-15T11:48:58.858Z,45.91
2019-05-15T11:49:58.670Z,46.67
2019-05-15T11:50:58.352Z,45.17
2019-05-15T11:52:00.640Z,44.09
2019-05-15T11:52:58.635Z,43.92
2019-05-15T11:53:58.764Z,45.55
2019-05-15T11:54:58.947Z,45.17
2019-05-15T11:55:59.854Z,45.94
2019-05-15T11:56:59.625Z,45.43
2019-05-15T11:57:59.373Z,45.53
2019-05-15T11:58:57.751Z,45.62
2019-05-15T11:59:59.653Z,45.17
2019-05-15T12:00:58.025Z,45.55
2019-05-15T12:01:58.015Z,45.55
2019-05-15T12:02:58.409Z,45.07
2019-05-15T12:03:58.539Z,44.59
2019-05-15T12:04:58.381Z,44.31
2019-05-15T12:05:59.649Z,44.12
2019-05-15T12:07:02.117Z,42.94
2019-05-15T12:07:57.925Z,44.19
2019-05-15T12:08:59.166Z,44.57
2019-05-15T12:09:58.100Z,44.76
2019-05-15T12:10:59.114Z,43.80
2019-05-15T12:11:56.970Z,43.43
2019-05-15T12:12:56.696Z,43.71
2019-05-15T12:13:56.774Z,43.90
2019-05-15T12:14:56.544Z,41.41
2019-05-15T12:15:58.757Z,41.32
2019-05-15T12:17:06.954Z,42.76
2019-05-15T12:17:59.007Z,44.95
2019-05-15T12:18:59.065Z,44.76
2019-05-15T12:20:04.692Z,44.67
2019-05-15T12:20:58.789Z,44.19
2019-05-15T12:21:59.582Z,44.40
2019-05-15T12:22:55.944Z,45.36
2019-05-15T12:23:56.019Z,44.59
2019-05-15T12:24:55.792Z,44.13
2019-05-15T12:25:55.716Z,44.81
2019-05-15T12:26:55.638Z,43.47
2019-05-15T12:27:55.749Z,41.94
2019-05-15T12:28:58.456Z,41.84
2019-05-15T12:29:55.414Z,42.80
2019-05-15T12:30:59.340Z,42.70
2019-05-15T12:31:55.264Z,41.74
2019-05-15T12:32:55.365Z,41.27
2019-05-15T12:33:55.115Z,42.51
2019-05-15T12:34:55.174Z,43.08
2019-05-15T12:35:54.965Z,41.07
2019-05-15T12:37:54.815Z,40.09
2019-05-15T12:38:54.897Z,39.72
2019-05-15T12:39:24.793Z,39.92
2019-05-15T12:59:53.164Z,41.38
2019-05-15T13:00:53.091Z,43.10
2019-05-15T13:01:53.213Z,41.57
2019-05-15T13:02:52.940Z,39.94
2019-05-15T13:03:53.021Z,39.64
2019-05-15T13:04:52.794Z,38.59
2019-05-15T13:05:52.833Z,39.54
2019-05-15T13:07:11.587Z,40.69
2019-05-15T13:07:52.569Z,41.36
2019-05-15T13:08:52.494Z,39.54
2019-05-15T13:09:52.550Z,39.35
2019-05-15T13:10:52.342Z,39.92
2019-05-15T13:11:52.461Z,39.35